createdAt,value
2023-04-21T00:00:10.080Z,5.32
2023-04-21T00:02:58.799Z,5.00
2023-04-21T00:05:27.210Z,5.47
2023-04-21T00:07:54.429Z,6.00
2023-04-21T00:10:21.934Z,6.15
2023-04-21T00:12:49.056Z,5.85
2023-04-21T00:15:16.522Z,6.30
2023-04-21T00:17:44.028Z,5.80
2023-04-21T00:20:12.334Z,5.75
2023-04-21T00:22:39.423Z,5.72
2023-04-21T00:25:07.720Z,5.78
2023-04-21T00:27:34.839Z,5.45
2023-04-21T00:30:02.441Z,5.13
2023-04-21T00:32:29.730Z,5.32
2023-04-21T00:34:58.118Z,5.05
2023-04-21T00:37:25.246Z,5.18
2023-04-21T00:39:52.805Z,5.00
2023-04-21T00:42:19.919Z,5.20
2023-04-21T00:44:47.359Z,5.15
2023-04-21T00:47:14.553Z,5.10
2023-04-21T00:49:42.982Z,4.93
2023-04-21T00:52:11.400Z,5.18
2023-04-21T00:54:40.550Z,4.45
2023-04-21T00:57:07.983Z,5.22
2023-04-21T00:59:36.206Z,5.05
2023-04-21T01:02:04.457Z,4.47
2023-04-21T01:04:36.984Z,4.68
2023-04-21T01:07:06.026Z,4.82
2023-04-21T01:09:34.732Z,5.00
2023-04-21T01:12:09.339Z,4.72
2023-04-21T01:14:39.877Z,5.05
2023-04-21T01:17:08.644Z,4.88
2023-04-21T01:19:40.056Z,4.85
2023-04-21T01:22:12.781Z,4.88
2023-04-21T01:24:47.359Z,4.65
2023-04-21T01:27:21.610Z,4.57
2023-04-21T01:29:52.776Z,4.90
2023-04-21T01:32:27.638Z,4.60
2023-04-21T01:34:57.706Z,4.63
2023-04-21T01:37:30.028Z,4.53
2023-04-21T01:42:29.168Z,4.53
2023-04-21T01:44:59.620Z,5.05
2023-04-21T01:47:26.848Z,5.07
2023-04-21T01:49:54.520Z,4.78
2023-04-21T01:52:21.780Z,5.25
2023-04-21T01:54:49.663Z,5.30
2023-04-21T01:57:17.931Z,5.10
2023-04-21T01:59:46.078Z,4.80
2023-04-21T02:02:13.335Z,5.13
2023-04-21T02:04:41.171Z,5.60
2023-04-21T02:07:08.517Z,5.18
2023-04-21T02:09:36.489Z,5.00
2023-04-21T02:12:03.855Z,4.95
2023-04-21T02:14:31.900Z,4.95
2023-04-21T02:16:59.556Z,4.80
2023-04-21T02:19:26.997Z,5.38
2023-04-21T02:21:55.820Z,5.40
2023-04-21T02:24:23.201Z,5.25
2023-04-21T02:26:50.421Z,5.45
2023-04-21T02:29:17.977Z,5.43
2023-04-21T02:31:57.790Z,5.60
2023-04-21T02:34:28.908Z,5.80
2023-04-21T02:36:56.122Z,5.30
2023-04-21T02:39:23.547Z,5.60
2023-04-21T02:41:50.783Z,5.40
2023-04-21T02:44:18.419Z,5.72
2023-04-21T02:46:45.708Z,6.05
2023-04-21T02:49:13.620Z,5.78
2023-04-21T02:51:40.925Z,5.68
2023-04-21T02:54:08.527Z,6.22
2023-04-21T02:56:36.086Z,5.88
2023-04-21T02:59:03.569Z,5.75
2023-04-21T03:01:30.946Z,5.43
2023-04-21T03:03:58.800Z,5.65
2023-04-21T03:06:27.345Z,5.65
2023-04-21T03:08:54.872Z,5.40
2023-04-21T03:11:22.128Z,5.70
2023-04-21T03:13:49.518Z,5.65
2023-04-21T03:16:17.093Z,5.60
2023-04-21T03:18:44.805Z,5.55
2023-04-21T03:21:13.326Z,5.32
2023-04-21T03:23:40.777Z,5.63
2023-04-21T03:26:08.739Z,5.65
2023-04-21T03:28:36.434Z,5.85
2023-04-21T03:31:03.714Z,5.75
2023-04-21T03:33:31.262Z,5.63
2023-04-21T03:35:58.489Z,5.63
2023-04-21T03:38:25.930Z,5.22
2023-04-21T03:40:53.217Z,5.68
2023-04-21T03:43:21.017Z,5.63
2023-04-21T03:45:48.203Z,5.85
2023-04-21T03:48:16.023Z,5.57
2023-04-21T03:50:43.156Z,5.60
2023-04-21T03:53:10.836Z,5.47
2023-04-21T03:55:38.056Z,5.47
2023-04-21T03:58:05.519Z,5.20
2023-04-21T04:00:32.584Z,5.38
2023-04-21T04:03:00.159Z,5.22
2023-04-21T04:05:28.318Z,5.53
2023-04-21T04:07:55.919Z,5.35
2023-04-21T04:10:23.059Z,5.90
2023-04-21T04:12:50.885Z,5.47
2023-04-21T04:15:18.174Z,5.47
2023-04-21T04:17:45.630Z,5.55
2023-04-21T04:20:12.902Z,6.20
2023-04-21T04:22:40.268Z,5.80
2023-04-21T04:25:07.627Z,6.57
2023-04-21T04:27:35.512Z,6.22
2023-04-21T04:30:03.526Z,6.40
2023-04-21T04:32:31.366Z,6.28
2023-04-21T04:34:58.826Z,6.38
2023-04-21T04:37:26.594Z,6.40
2023-04-21T04:39:54.432Z,5.72
2023-04-21T04:42:21.863Z,5.90
2023-04-21T04:44:48.866Z,5.75
2023-04-21T04:47:16.391Z,5.93
2023-04-21T04:49:43.588Z,5.93
2023-04-21T04:52:11.124Z,5.90
2023-04-21T04:54:38.290Z,5.60
2023-04-21T04:57:05.621Z,5.60
2023-04-21T04:59:32.739Z,5.60
2023-04-21T05:02:00.434Z,5.97
2023-04-21T05:04:29.051Z,7.95
2023-04-21T05:06:56.716Z,7.47
2023-04-21T05:09:23.860Z,5.85
2023-04-21T05:11:51.363Z,5.63
2023-04-21T05:14:18.681Z,6.00
2023-04-21T05:16:46.821Z,6.30
2023-04-21T05:19:14.353Z,6.22
2023-04-21T05:21:42.792Z,6.07
2023-04-21T05:24:09.904Z,5.30
2023-04-21T05:26:37.448Z,5.60
2023-04-21T05:29:04.632Z,6.15
2023-04-21T05:31:33.047Z,5.80
2023-04-21T05:34:00.208Z,6.85
2023-04-21T05:36:27.872Z,7.60
2023-04-21T05:38:55.430Z,7.85
2023-04-21T05:41:23.015Z,8.18
2023-04-21T05:43:50.036Z,8.30
2023-04-21T05:46:17.508Z,8.10
2023-04-21T05:48:44.650Z,7.70
2023-04-21T05:51:15.410Z,7.07
2023-04-21T05:53:44.751Z,8.27
2023-04-21T05:56:12.959Z,8.65
2023-04-21T05:58:40.191Z,8.90
2023-04-21T06:01:08.031Z,9.20
2023-04-21T06:03:35.932Z,9.80
2023-04-21T06:06:06.146Z,9.52
2023-04-21T06:08:33.436Z,9.25
2023-04-21T06:11:00.776Z,9.43
2023-04-21T06:13:28.089Z,9.95
2023-04-21T06:15:55.756Z,9.30
2023-04-21T06:18:24.007Z,9.30
2023-04-21T06:20:53.055Z,8.95
2023-04-21T06:23:21.335Z,8.85
2023-04-21T06:26:04.764Z,9.32
2023-04-21T06:28:33.510Z,8.57
2023-04-21T06:31:01.926Z,7.95
2023-04-21T06:33:30.249Z,8.68
2023-04-21T06:35:57.945Z,8.38
2023-04-21T06:38:25.215Z,8.90
2023-04-21T06:40:52.625Z,8.10
2023-04-21T06:43:20.247Z,9.00
2023-04-21T06:45:47.682Z,9.00
2023-04-21T06:48:14.848Z,8.63
2023-04-21T06:50:44.312Z,9.35
2023-04-21T06:53:12.045Z,8.93
2023-04-21T06:55:39.402Z,8.50
2023-04-21T06:58:06.632Z,8.27
2023-04-21T07:00:34.042Z,8.25
2023-04-21T07:03:03.448Z,8.75
2023-04-21T07:05:31.026Z,9.25
2023-04-21T07:07:59.926Z,7.95
2023-04-21T07:10:29.891Z,7.63
2023-04-21T07:12:57.383Z,7.82
2023-04-21T07:15:24.830Z,7.60
2023-04-21T07:17:51.986Z,7.30
2023-04-21T07:20:19.732Z,7.07
2023-04-21T07:22:46.917Z,7.47
2023-04-21T07:25:14.429Z,6.45
2023-04-21T07:27:41.748Z,7.63
2023-04-21T07:30:09.707Z,7.03
2023-04-21T07:32:38.612Z,6.68
2023-04-21T07:35:07.202Z,7.35
2023-04-21T07:37:34.469Z,6.95
2023-04-21T07:40:01.984Z,7.10
2023-04-21T07:42:29.528Z,8.18
2023-04-21T07:44:57.644Z,8.13
2023-04-21T07:47:25.239Z,7.95
2023-04-21T07:49:52.885Z,7.53
2023-04-21T07:52:20.282Z,7.75
2023-04-21T07:54:47.714Z,7.20
2023-04-21T07:57:15.568Z,6.82
2023-04-21T07:59:43.433Z,7.10
2023-04-21T08:02:10.668Z,6.82
2023-04-21T08:04:38.384Z,7.10
2023-04-21T08:07:06.051Z,8.35
2023-04-21T08:09:33.490Z,8.38
2023-04-21T08:12:03.396Z,7.68
2023-04-21T08:14:32.234Z,7.55
2023-04-21T08:17:00.040Z,6.95
2023-04-21T08:19:27.598Z,6.80
2023-04-21T08:21:55.324Z,6.68
2023-04-21T08:24:22.990Z,6.68
2023-04-21T08:26:51.030Z,6.00
2023-04-21T08:29:18.551Z,5.70
2023-04-21T08:31:45.900Z,6.15
2023-04-21T08:34:13.929Z,5.68
2023-04-21T08:36:42.777Z,6.28
2023-04-21T08:39:10.667Z,6.32
2023-04-21T08:41:41.206Z,5.25
2023-04-21T08:44:11.685Z,5.43
2023-04-21T08:46:40.233Z,5.93
2023-04-21T08:49:10.524Z,5.05
2023-04-21T08:51:37.677Z,4.60
2023-04-21T08:54:05.741Z,4.32
2023-04-21T08:56:32.925Z,5.80
2023-04-21T08:59:00.436Z,5.28
2023-04-21T09:01:27.669Z,5.60
2023-04-21T09:04:16.769Z,4.75
2023-04-21T09:06:45.975Z,4.72
2023-04-21T09:09:13.481Z,4.28
2023-04-21T09:11:40.735Z,3.92
2023-04-21T09:14:09.131Z,4.78
2023-04-21T09:16:36.810Z,4.65
2023-04-21T09:19:15.587Z,5.07
2023-04-21T09:21:44.516Z,4.38
2023-04-21T09:24:13.131Z,4.57
2023-04-21T09:26:42.964Z,5.40
2023-04-21T09:29:10.509Z,5.65
2023-04-21T09:31:37.821Z,5.57
2023-04-21T09:34:43.185Z,5.93
2023-04-21T09:37:14.638Z,5.28
2023-04-21T09:40:03.376Z,4.38
2023-04-21T09:42:38.949Z,5.07
2023-04-21T09:47:51.855Z,4.75
2023-04-21T09:50:51.162Z,4.80
2023-04-21T09:53:21.784Z,5.57
2023-04-21T09:55:54.066Z,4.78
2023-04-21T10:00:55.626Z,4.40
2023-04-21T10:03:27.670Z,4.15
2023-04-21T10:05:55.886Z,4.28
2023-04-21T10:08:23.156Z,5.28
2023-04-21T10:10:52.786Z,4.95
2023-04-21T10:13:21.129Z,5.53
2023-04-21T10:15:48.532Z,4.53
2023-04-21T10:18:22.652Z,3.78
2023-04-21T10:20:58.193Z,4.25
2023-04-21T10:23:45.759Z,3.90
2023-04-21T10:26:25.790Z,4.55
2023-04-21T10:29:06.341Z,4.40
2023-04-21T10:31:44.012Z,3.95
2023-04-21T10:34:12.153Z,5.22
2023-04-21T10:36:48.328Z,4.60
2023-04-21T10:39:29.813Z,3.70
2023-04-21T10:42:19.629Z,5.00
2023-04-21T10:44:58.891Z,4.97
2023-04-21T10:47:42.630Z,4.10
2023-04-21T10:50:20.389Z,4.95
2023-04-21T10:52:57.854Z,4.78
2023-04-21T10:55:30.174Z,4.82
2023-04-21T10:58:02.958Z,4.40
2023-04-21T11:00:30.475Z,4.68
2023-04-21T11:03:07.102Z,4.50
2023-04-21T11:05:40.896Z,4.10
2023-04-21T11:08:13.083Z,3.58
2023-04-21T11:10:49.698Z,3.83
2023-04-21T11:13:17.220Z,3.40
2023-04-21T11:15:57.968Z,2.83
2023-04-21T11:18:44.029Z,3.50
2023-04-21T11:21:18.398Z,3.42
2023-04-21T11:23:52.608Z,2.95
2023-04-21T11:26:34.393Z,3.70
2023-04-21T11:29:07.535Z,3.30
2023-04-21T11:31:40.827Z,3.10
2023-04-21T11:34:08.595Z,3.03
2023-04-21T11:36:44.956Z,2.50
2023-04-21T11:39:16.389Z,2.80
2023-04-21T11:41:47.953Z,2.50
2023-04-21T11:44:35.673Z,2.75
2023-04-21T11:47:33.073Z,2.67
2023-04-21T11:50:04.113Z,3.03
2023-04-21T11:52:34.507Z,3.25
2023-04-21T11:55:17.867Z,2.70
2023-04-21T11:57:45.071Z,2.90
2023-04-21T12:00:16.679Z,2.67
2023-04-21T12:02:44.451Z,2.97
2023-04-21T12:05:14.478Z,3.00
2023-04-21T12:07:47.929Z,2.45
2023-04-21T12:10:20.043Z,2.53
2023-04-21T12:15:23.022Z,2.80
2023-04-21T12:17:53.648Z,3.60
2023-04-21T12:20:24.843Z,3.88
2023-04-21T12:22:53.360Z,4.10
2023-04-21T12:25:20.681Z,3.42
2023-04-21T12:27:52.467Z,3.45
2023-04-21T12:30:21.290Z,2.83
2023-04-21T12:32:48.780Z,3.10
2023-04-21T12:35:16.498Z,3.30
2023-04-21T12:37:44.738Z,2.78
2023-04-21T12:40:12.315Z,3.60
2023-04-21T12:42:39.751Z,3.10
2023-04-21T12:45:08.104Z,2.47
2023-04-21T12:47:37.020Z,3.00
2023-04-21T12:50:05.554Z,3.25
2023-04-21T12:52:32.713Z,2.80
2023-04-21T12:55:00.237Z,3.08
2023-04-21T12:57:27.554Z,2.80
2023-04-21T12:59:55.963Z,2.72
2023-04-21T13:02:23.240Z,2.42
2023-04-21T13:04:50.918Z,2.67
2023-04-21T13:07:21.250Z,2.30
2023-04-21T13:09:48.842Z,2.72
2023-04-21T13:12:16.033Z,2.55
2023-04-21T13:14:43.425Z,2.45
2023-04-21T13:17:11.252Z,2.10
2023-04-21T13:19:38.815Z,2.33
2023-04-21T13:22:05.956Z,2.20
2023-04-21T13:24:33.975Z,2.38
2023-04-21T13:27:02.020Z,2.38
2023-04-21T13:29:33.948Z,2.40
2023-04-21T13:32:03.596Z,2.70
2023-04-21T13:34:33.476Z,2.20
2023-04-21T13:37:02.189Z,2.55
2023-04-21T13:39:29.912Z,2.63
2023-04-21T13:41:58.022Z,2.97
2023-04-21T13:44:25.532Z,2.80
2023-04-21T13:46:54.072Z,2.80
2023-04-21T13:49:21.482Z,2.22
2023-04-21T13:51:48.635Z,2.42
2023-04-21T13:54:16.071Z,2.20
2023-04-21T13:56:43.321Z,2.20
2023-04-21T13:59:11.315Z,1.85
2023-04-21T14:01:38.599Z,2.20
2023-04-21T14:04:06.907Z,2.20
2023-04-21T14:06:34.305Z,2.60
2023-04-21T14:09:01.733Z,2.20
2023-04-21T14:11:28.894Z,2.08
2023-04-21T14:14:08.861Z,1.95
2023-04-21T14:16:37.468Z,2.38
2023-04-21T14:19:04.929Z,2.15
2023-04-21T14:21:32.626Z,2.20
2023-04-21T14:24:00.237Z,2.15
2023-04-21T14:26:27.561Z,2.35
2023-04-21T14:28:54.991Z,2.30
2023-04-21T14:31:22.509Z,2.10
2023-04-21T14:33:50.034Z,2.10
2023-04-21T14:36:17.517Z,2.22
2023-04-21T14:38:45.101Z,2.00
2023-04-21T14:41:12.650Z,1.95
2023-04-21T14:43:40.045Z,2.42
2023-04-21T14:46:07.540Z,2.10
2023-04-21T14:48:35.377Z,2.30
2023-04-21T14:51:02.707Z,2.50
2023-04-21T14:53:30.148Z,2.00
2023-04-21T14:55:57.304Z,2.20
2023-04-21T14:58:24.713Z,2.75
2023-04-21T15:00:52.025Z,2.33
2023-04-21T15:03:19.798Z,2.15
2023-04-21T15:05:47.176Z,2.90
2023-04-21T15:08:18.076Z,2.70
2023-04-21T15:10:45.567Z,2.95
2023-04-21T15:13:13.889Z,2.40
2023-04-21T15:15:41.563Z,2.67
2023-04-21T15:18:08.941Z,2.63
2023-04-21T15:20:44.446Z,2.80
2023-04-21T15:23:14.904Z,2.10
2023-04-21T15:25:42.416Z,2.13
2023-04-21T15:28:10.069Z,2.20
2023-04-21T15:30:37.467Z,2.20
2023-04-21T15:33:05.169Z,2.10
2023-04-21T15:35:32.514Z,2.60
2023-04-21T15:38:00.881Z,2.75
2023-04-21T15:40:28.457Z,2.25
2023-04-21T15:42:56.056Z,2.70
2023-04-21T15:45:23.212Z,2.83
2023-04-21T15:47:50.860Z,2.60
2023-04-21T15:50:18.468Z,2.20
2023-04-21T15:52:46.066Z,1.80
2023-04-21T15:55:13.695Z,2.15
2023-04-21T15:57:41.104Z,2.05
2023-04-21T16:00:12.730Z,2.17
2023-04-21T16:02:40.639Z,2.20
2023-04-21T16:05:09.151Z,2.22
2023-04-21T16:07:36.716Z,2.28
2023-04-21T16:10:04.050Z,1.92
2023-04-21T16:12:31.503Z,2.15
2023-04-21T16:15:09.400Z,2.67
2023-04-21T16:17:44.033Z,2.75
2023-04-21T16:20:12.460Z,2.67
2023-04-21T16:22:40.316Z,2.45
2023-04-21T16:25:08.756Z,2.20
2023-04-21T16:27:36.400Z,2.00
2023-04-21T16:30:06.671Z,2.78
2023-04-21T16:32:35.740Z,2.60
2023-04-21T16:35:09.926Z,2.75
2023-04-21T16:37:40.399Z,2.63
2023-04-21T16:40:09.790Z,2.75
2023-04-21T16:42:37.953Z,2.97
2023-04-21T16:45:05.869Z,2.28
2023-04-21T16:47:42.088Z,2.55
2023-04-21T16:50:10.369Z,2.42
2023-04-21T16:52:39.338Z,4.18
2023-04-21T16:55:06.898Z,3.10
2023-04-21T16:57:34.849Z,2.90
2023-04-21T17:00:06.620Z,2.75
2023-04-21T17:02:34.539Z,3.00
2023-04-21T17:05:02.295Z,3.30
2023-04-21T17:07:31.398Z,2.88
2023-04-21T17:09:58.535Z,2.30
2023-04-21T17:12:25.908Z,2.55
2023-04-21T17:14:53.019Z,2.60
2023-04-21T17:17:20.488Z,2.67
2023-04-21T17:19:47.595Z,2.40
2023-04-21T17:22:15.090Z,2.17
2023-04-21T17:24:52.592Z,2.60
2023-04-21T17:27:21.420Z,2.20
2023-04-21T17:29:48.669Z,2.35
2023-04-21T17:32:16.185Z,2.30
2023-04-21T17:34:43.568Z,2.58
2023-04-21T17:37:11.183Z,2.35
2023-04-21T17:39:38.671Z,2.65
2023-04-21T17:42:06.561Z,2.50
2023-04-21T17:44:33.704Z,2.75
2023-04-21T17:47:02.094Z,2.17
2023-04-21T17:49:29.268Z,2.90
2023-04-21T17:51:56.807Z,2.58
2023-04-21T17:54:24.021Z,2.40
2023-04-21T17:56:51.658Z,2.53
2023-04-21T17:59:18.773Z,2.50
2023-04-21T18:01:46.282Z,2.45
2023-04-21T18:04:13.996Z,2.25
2023-04-21T18:06:41.749Z,2.70
2023-04-21T18:09:09.496Z,2.40
2023-04-21T18:11:38.154Z,2.30
2023-04-21T18:14:06.355Z,2.60
2023-04-21T18:16:34.180Z,2.60
2023-04-21T18:19:01.652Z,2.30
2023-04-21T18:21:29.054Z,2.13
2023-04-21T18:23:56.132Z,2.40
2023-04-21T18:26:26.546Z,2.28
2023-04-21T18:28:54.617Z,2.55
2023-04-21T18:31:25.845Z,2.20
2023-04-21T18:33:53.320Z,2.08
2023-04-21T18:36:20.656Z,2.20
2023-04-21T18:38:47.858Z,2.05
2023-04-21T18:41:16.072Z,2.60
2023-04-21T18:43:43.482Z,3.20
2023-04-21T18:46:11.253Z,3.97
2023-04-21T18:48:38.653Z,4.28
2023-04-21T18:51:06.083Z,4.50
2023-04-21T18:53:33.499Z,4.85
2023-04-21T18:56:00.955Z,4.60
2023-04-21T18:58:28.115Z,4.25
2023-04-21T19:00:56.036Z,3.97
2023-04-21T19:03:25.195Z,4.40
2023-04-21T19:05:52.714Z,4.20
2023-04-21T19:08:30.074Z,3.85
2023-04-21T19:11:06.053Z,3.90
2023-04-21T19:13:33.287Z,4.40
2023-04-21T19:16:01.388Z,4.57
2023-04-21T19:18:28.679Z,4.72
2023-04-21T19:20:56.188Z,5.15
2023-04-21T19:23:23.380Z,4.93
2023-04-21T19:25:54.549Z,5.20
2023-04-21T19:28:21.792Z,5.10
2023-04-21T19:30:49.521Z,4.75
2023-04-21T19:33:16.865Z,5.10
2023-04-21T19:35:44.380Z,5.25
2023-04-21T19:38:11.663Z,5.50
2023-04-21T19:40:39.222Z,5.15
2023-04-21T19:43:08.733Z,5.00
2023-04-21T19:45:37.530Z,5.13
2023-04-21T19:48:06.918Z,5.32
2023-04-21T19:50:35.779Z,5.95
2023-04-21T19:53:03.693Z,5.55
2023-04-21T19:55:31.888Z,5.63
2023-04-21T19:57:59.141Z,6.10
2023-04-21T20:00:26.716Z,5.05
2023-04-21T20:02:54.157Z,5.78
2023-04-21T20:05:21.746Z,5.63
2023-04-21T20:07:49.037Z,5.55
2023-04-21T20:10:16.544Z,4.88
2023-04-21T20:12:43.927Z,5.35
2023-04-21T20:15:12.803Z,5.40
2023-04-21T20:17:41.694Z,5.30
2023-04-21T20:20:10.621Z,5.13
2023-04-21T20:22:37.720Z,5.70
2023-04-21T20:25:07.535Z,5.80
2023-04-21T20:27:34.874Z,5.75
2023-04-21T20:30:02.809Z,5.90
2023-04-21T20:32:30.237Z,5.47
2023-04-21T20:34:59.559Z,5.38
2023-04-21T20:37:26.704Z,5.05
2023-04-21T20:39:54.080Z,5.22
2023-04-21T20:42:21.764Z,5.43
2023-04-21T20:44:49.108Z,4.88
2023-04-21T20:47:17.621Z,4.85
2023-04-21T20:49:46.925Z,4.60
2023-04-21T20:52:14.138Z,4.80
2023-04-21T20:54:41.743Z,4.35
2023-04-21T20:57:10.216Z,4.70
2023-04-21T20:59:38.273Z,4.50
2023-04-21T21:02:05.717Z,4.20
2023-04-21T21:04:33.523Z,4.25
2023-04-21T21:07:03.607Z,4.07
2023-04-21T21:09:31.725Z,4.50
2023-04-21T21:11:58.860Z,4.80
2023-04-21T21:14:26.544Z,4.97
2023-04-21T21:16:54.694Z,5.32
2023-04-21T21:19:22.302Z,5.25
2023-04-21T21:21:49.472Z,6.03
2023-04-21T21:24:17.006Z,6.00
2023-04-21T21:26:44.144Z,5.97
2023-04-21T21:29:11.660Z,6.28
2023-04-21T21:31:39.433Z,6.35
2023-04-21T21:34:06.785Z,6.45
2023-04-21T21:36:34.025Z,6.03
2023-04-21T21:39:03.551Z,5.90
2023-04-21T21:41:30.576Z,5.97
2023-04-21T21:43:58.172Z,6.30
2023-04-21T21:46:25.476Z,6.03
2023-04-21T21:48:52.884Z,6.00
2023-04-21T21:51:20.218Z,6.18
2023-04-21T21:53:47.568Z,6.40
2023-04-21T21:56:14.675Z,5.88
2023-04-21T21:58:42.447Z,5.85
2023-04-21T22:01:09.871Z,5.90
2023-04-21T22:03:37.793Z,5.88
2023-04-21T22:06:06.148Z,6.13
2023-04-21T22:08:33.585Z,6.07
2023-04-21T22:11:02.924Z,5.90
2023-04-21T22:13:30.268Z,5.93
2023-04-21T22:15:57.536Z,5.97
2023-04-21T22:18:24.996Z,5.55
2023-04-21T22:20:52.169Z,5.30
2023-04-21T22:23:21.307Z,6.30
2023-04-21T22:25:48.422Z,5.80
2023-04-21T22:28:15.781Z,5.82
2023-04-21T22:30:43.096Z,5.82
2023-04-21T22:33:10.788Z,6.35
2023-04-21T22:35:37.952Z,5.35
2023-04-21T22:38:05.708Z,5.38
2023-04-21T22:40:33.343Z,5.25
2023-04-21T22:43:00.959Z,5.65
2023-04-21T22:45:28.385Z,5.50
2023-04-21T22:47:56.548Z,5.38
2023-04-21T22:50:24.109Z,5.43
2023-04-21T22:52:51.834Z,5.25
2023-04-21T22:55:19.040Z,5.07
2023-04-21T22:57:46.516Z,5.20
2023-04-21T23:00:15.346Z,6.50
2023-04-21T23:02:42.917Z,6.03
2023-04-21T23:05:10.750Z,6.60
2023-04-21T23:07:38.282Z,7.07
2023-04-21T23:10:05.989Z,7.10
2023-04-21T23:12:33.555Z,6.82
2023-04-21T23:15:00.980Z,6.60
2023-04-21T23:17:29.607Z,6.60
2023-04-21T23:19:56.854Z,7.38
2023-04-21T23:22:26.069Z,7.70
2023-04-21T23:24:53.463Z,7.50
2023-04-21T23:27:20.951Z,7.63
2023-04-21T23:29:48.094Z,7.72
2023-04-21T23:32:15.438Z,7.88
2023-04-21T23:34:42.619Z,8.68
2023-04-21T23:37:10.747Z,8.20
2023-04-21T23:39:38.072Z,8.05
2023-04-21T23:42:06.347Z,7.53
2023-04-21T23:44:33.961Z,7.88
2023-04-21T23:47:01.451Z,7.95
2023-04-21T23:49:28.544Z,8.18
2023-04-21T23:51:56.024Z,7.55
2023-04-21T23:54:23.305Z,7.18
2023-04-21T23:56:51.102Z,7.35
2023-04-21T23:59:18.428Z,7.25
